Weather observations for the past three days for
Gambell, Gambell Airport
| Date | Time (akdt) | Wind (kph) | Vis. (km) | Weather | Sky Cond. | Temperature (ºC) | Relative Humidity | Wind Chill (°C) | Heat Index (°C) | Pressure | Precipitation (cm) | ||||||
|---|---|---|---|---|---|---|---|---|---|---|---|---|---|---|---|---|---|
| Air | Dwpt | 6 hour | altimeter (cm) | sea level (mb) | 1 hr | 3 hr | 6 hr | ||||||||||
| Max. | Min. | ||||||||||||||||
| 09 | 22:56 | N 31 | 16.09 | Overcast | OVC018 | -3.3 | -6.7 | 78% | -10 | 75.36 | 1005.4 | ||||||
| 09 | 21:56 | N 30 | 16.09 | Overcast | OVC016 | -3.3 | -6.7 | -2.8 | -3.3 | 78% | -10 | 75.39 | 1005.7 | ||||
| 09 | 20:56 | N 26 | 16.09 | Overcast | OVC016 | -3.3 | -6.1 | 81% | -10 | 75.41 | 1005.9 | ||||||
| 09 | 19:56 | NE 30 | 16.09 | Overcast | OVC016 | -3.3 | -6.1 | 81% | -10 | 75.44 | 1006.3 | ||||||
| 09 | 18:56 | N 35 | 16.09 | Overcast and Breezy | OVC016 | -2.8 | -6.1 | 78% | -10 | 75.44 | 1006.4 | ||||||
| 09 | 17:56 | N 39 | 16.09 | Overcast and Breezy | OVC016 | -3.3 | -6.1 | 81% | -11 | 75.46 | 1006.6 | ||||||
| 09 | 16:56 | N 41 | 16.09 | Overcast and Breezy | OVC016 | -2.8 | -6.1 | 78% | -11 | 75.51 | 1007.2 | ||||||
| 09 | 15:56 | NE 39 | 16.09 | Overcast and Breezy | OVC016 | -3.3 | -6.1 | -2.2 | -3.3 | 81% | -11 | 75.54 | 1007.6 | ||||
| 09 | 14:56 | N 33 | 16.09 | Overcast and Breezy | OVC014 | -2.8 | -5.6 | 81% | -10 | 75.57 | 1008.1 | ||||||
| 09 | 13:56 | N 33 G 44 | 16.09 | Overcast and Breezy | OVC012 | -2.8 | -5.6 | 81% | -10 | 75.62 | 1008.6 | ||||||
| 09 | 12:56 | NE 30 | 16.09 | Overcast | OVC012 | -2.8 | -5 | 85% | -10 | 75.62 | 1008.6 | ||||||
| 09 | 11:56 | N 35 | 16.09 | Overcast and Breezy | OVC014 | -2.8 | -5.6 | 81% | -10 | 75.64 | 1008.9 | ||||||
| 09 | 10:56 | N 31 | 16.09 | Overcast | OVC014 | -2.8 | -5.6 | 81% | -10 | 75.67 | 1009.3 | ||||||
| 09 | 09:56 | N 28 | 16.09 | Overcast | OVC020 | -2.8 | -6.1 | -2.2 | -3.3 | 78% | -9 | 75.69 | 1009.7 | ||||
| 09 | 08:56 | N 26 | 16.09 | Overcast | OVC016 | -3.3 | -6.1 | 81% | -10 | 75.72 | 1010.1 | ||||||
| 09 | 07:56 | N 28 | 16.09 | Overcast | OVC016 | -2.8 | -5.6 | 81% | -9 | 75.74 | 1010.4 | ||||||
| 09 | 06:56 | N 28 | 16.09 | Overcast | OVC014 | -2.8 | -5 | 85% | -9 | 75.77 | 1010.8 | ||||||
| 09 | 05:56 | NE 26 | 16.09 | Overcast | OVC016 | -2.8 | -5 | 85% | -9 | 75.82 | 1011.3 | ||||||
| 09 | 04:56 | N 22 | 16.09 | Overcast | OVC020 | -2.8 | -5 | 85% | -9 | 75.84 | 1011.8 | ||||||
| 09 | 03:56 | N 19 | 16.09 | Overcast | OVC024 | -2.8 | -5 | -1.7 | -2.8 | 85% | -8 | 75.9 | 1012.3 | ||||
| 09 | 02:56 | N 17 | 16.09 | Overcast | OVC028 | -2.8 | -5 | 85% | -8 | 75.95 | 1012.9 | ||||||
| 09 | 01:56 | N 15 | 16.09 | Overcast | FEW020 OVC030 | -2.8 | -3.9 | 92% | -7 | 75.97 | 1013.5 | ||||||
| 09 | 00:56 | NE 15 | 16.09 | Overcast | OVC010 | -2.8 | -3.9 | 92% | -7 | 76.02 | 1014.0 | ||||||
| 08 | 23:56 | NW 19 | 16.09 | Overcast | SCT006 OVC016 | -1.7 | -3.3 | 89% | -7 | 76.05 | 1014.4 | ||||||
| 08 | 22:56 | NW 20 | 16.09 | Overcast | OVC006 | -1.7 | -3.3 | 89% | -7 | 76.07 | 1014.8 | ||||||
| 08 | 21:56 | NW 20 | 16.09 | Overcast | OVC008 | -1.7 | -3.9 | 0 | -1.7 | 85% | -7 | 76.1 | 1015.2 | ||||
| 08 | 20:56 | NW 19 | 16.09 | Overcast | FEW008 OVC023 | -1.7 | -4.4 | 82% | -7 | 76.15 | 1015.7 | ||||||
| 08 | 19:56 | NW 17 | 16.09 | Overcast | BKN017 OVC023 | -1.1 | -5 | 75% | -6 | 76.2 | 1016.4 | ||||||
| 08 | 18:56 | NW 7 | 16.09 | Overcast | OVC022 | -0.6 | -5 | 72% | -3 | 76.23 | 1017.0 | ||||||
| 08 | 17:56 | N 6 | 16.09 | Overcast | OVC020 | -1.7 | -6.1 | 72% | 76.28 | 1017.6 | |||||||
| 08 | 16:56 | NW 6 | 16.09 | Overcast | OVC020 | -0.6 | -5 | 72% | 76.33 | 1018.2 | |||||||
| 08 | 15:56 | N 6 | 16.09 | Overcast | OVC018 | -1.7 | -5.6 | -1.7 | -4.4 | 75% | 76.38 | 1018.8 | |||||
| 08 | 14:56 | N 7 | 16.09 | Overcast | OVC016 | -2.8 | -6.1 | 78% | -5 | 76.4 | 1019.2 | ||||||
| 08 | 13:56 | NE 13 | 16.09 | Overcast | OVC016 | -2.8 | -6.1 | 78% | -7 | 76.43 | 1019.6 | ||||||
| 08 | 12:56 | N 17 | 16.09 | Overcast | OVC012 | -3.9 | -6.7 | 81% | -9 | 76.45 | 1020.0 | ||||||
| 08 | 11:56 | NE 9 | 16.09 | Overcast | OVC012 | -3.9 | -6.7 | 81% | -7 | 76.48 | 1020.2 | ||||||
| 08 | 10:56 | NE 11 | 16.09 | Overcast | OVC012 | -4.4 | -6.7 | 84% | -8 | 76.5 | 1020.7 | ||||||
| 08 | 09:56 | N 17 | 16.09 | Overcast | OVC010 | -4.4 | -6.7 | -4.4 | -5.6 | 84% | -10 | 76.56 | 1021.1 | ||||
| 08 | 08:56 | N 11 | 16.09 | Overcast | OVC010 | -4.4 | -6.7 | 84% | -8 | 76.56 | 1021.2 | ||||||
| 08 | 07:56 | N 13 | 16.09 | Overcast | OVC010 | -5 | -6.7 | 88% | -10 | 76.58 | 1021.5 | ||||||
| 08 | 06:56 | NE 11 | 16.09 | Overcast | OVC010 | -5 | -6.7 | 88% | -9 | 76.61 | 1021.7 | ||||||
| 08 | 05:56 | N 11 | 16.09 | Overcast | OVC010 | -5 | -6.7 | 88% | -9 | 76.63 | 1022.2 | ||||||
| 08 | 04:56 | N 13 | 16.09 | Overcast | OVC012 | -5 | -7.2 | 85% | -10 | 76.63 | 1022.2 | ||||||
| 08 | 03:56 | NE 11 | 16.09 | Overcast | OVC012 | -5 | -7.8 | -4.4 | -5 | 81% | -9 | 76.66 | 1022.6 | ||||
| 08 | 02:56 | NE 11 | 16.09 | Overcast | OVC012 | -5 | -7.2 | 85% | -9 | 76.66 | 1022.7 | ||||||
| 08 | 01:56 | NE 11 | 16.09 | Overcast | OVC012 | -5 | -6.7 | 88% | -9 | 76.68 | 1022.9 | ||||||
| 08 | 00:56 | N 9 | 16.09 | Overcast | OVC012 | -5 | -7.2 | 85% | -9 | 76.68 | 1022.9 | ||||||
| 07 | 23:56 | NE 9 | 16.09 | Overcast | OVC012 | -5 | -7.2 | 85% | -9 | 76.71 | 1023.1 | ||||||
| 07 | 22:56 | E 7 | 16.09 | Overcast | OVC012 | -4.4 | -7.2 | 81% | -7 | 76.71 | 1023.2 | ||||||
| 07 | 21:56 | N 9 | 16.09 | Overcast | OVC012 | -4.4 | -7.2 | -1.7 | -4.4 | 81% | -8 | 76.71 | 1023.2 | ||||
| 07 | 20:56 | NE 11 | 16.09 | Overcast | OVC012 | -4.4 | -7.2 | 81% | -8 | 76.71 | 1023.1 | ||||||
| 07 | 19:56 | E 9 | 16.09 | Overcast | OVC012 | -3.9 | -6.7 | 81% | -7 | 76.71 | 1023.3 | ||||||
| 07 | 18:56 | E 7 | 16.09 | Overcast | OVC012 | -3.3 | -6.7 | 78% | -6 | 76.71 | 1023.4 | ||||||
| 07 | 17:56 | NE 15 | 16.09 | Overcast | OVC014 | -2.8 | -6.7 | 75% | -7 | 76.73 | 1023.5 | ||||||
| 07 | 16:56 | NE 15 | 16.09 | Overcast | OVC016 | -2.8 | -6.7 | 75% | -7 | 76.73 | 0.0 | ||||||
| 07 | 15:56 | N 7 | 16.09 | Overcast | OVC016 | -1.7 | -6.7 | -1.1 | -3.3 | 69% | -4 | 76.76 | 1023.8 | ||||
| 07 | 14:56 | NE 7 | 16.09 | Overcast | OVC018 | -1.7 | -6.1 | 72% | -4 | 76.76 | 1023.9 | ||||||
| 07 | 13:56 | E 13 | 16.09 | Overcast | OVC018 | -2.2 | -6.1 | 75% | -6 | 76.76 | 1023.8 | ||||||
| 07 | 12:56 | E 9 | 16.09 | Overcast | OVC018 | -2.2 | -6.1 | 75% | -5 | 76.76 | 1023.8 | ||||||
| 07 | 11:56 | NE 15 | 16.09 | Overcast | OVC018 | -3.3 | -6.1 | 81% | -8 | 76.76 | 1023.8 | ||||||
| 07 | 10:56 | NE 17 | 16.09 | Overcast | OVC018 | -3.3 | -6.1 | 81% | -8 | 76.73 | 1023.7 | ||||||
| 07 | 09:56 | NE 19 | 16.09 | Overcast | OVC018 | -3.3 | -6.1 | -3.3 | -3.3 | 81% | -9 | 76.73 | 1023.5 | ||||
| 07 | 08:56 | NE 17 | 16.09 | Overcast | OVC016 | -3.3 | -6.1 | 81% | -8 | 76.71 | 1023.3 | ||||||
| 07 | 07:56 | NE 17 | 16.09 | Overcast | OVC016 | -3.3 | -5.6 | 84% | -8 | 76.71 | 1023.1 | ||||||
| 07 | 06:56 | NE 19 | 16.09 | Overcast | OVC016 | -3.3 | -5.6 | 84% | -9 | 76.68 | 1022.9 | ||||||
| 07 | 05:56 | NE 17 | 16.09 | Overcast | OVC016 | -3.3 | -5.6 | 84% | -8 | 76.68 | 1022.9 | ||||||
| 07 | 04:56 | NE 19 | 16.09 | Overcast | OVC016 | 0 | 0 | 0% | 76.68 | 0.0 | |||||||
| 07 | 03:56 | NE 15 | 16.09 | Overcast | OVC016 | -3.3 | -5 | -2.8 | -3.3 | 88% | -8 | 76.68 | 1023.1 | ||||
| 07 | 02:56 | NE 19 | 16.09 | Overcast | OVC016 | -3.3 | -5.6 | 84% | -9 | 76.68 | 1022.8 | ||||||
| 07 | 01:56 | NE 19 | 16.09 | Overcast | OVC018 | -3.3 | -5 | 88% | -9 | 76.66 | 1022.7 | ||||||
| 07 | 00:56 | NE 19 | 16.09 | Overcast | OVC016 | -3.3 | -5 | 88% | -9 | 76.63 | 1022.3 | ||||||
| 06 | 23:56 | NE 17 | 16.09 | Overcast | OVC011 | -3.3 | -5 | 88% | -8 | 76.63 | 1022.2 | ||||||
| Date | Time (akdt) | Wind (kph) | Vis. (km) | Weather | Sky Cond. | Air | Dwpt | Max. | Min. | Relative Humidity | Wind Chill (°C) | Heat Index (°C) | altimeter (cm) | sea level (mb) | 1 hr | 3 hr | 6 hr |
| 6 hour | |||||||||||||||||
| Temperature (ºC) | Pressure | Precipitation (cm) | |||||||||||||||